Portada
METAR-TAF:

METAR-TAF

Aeroports :

Hurlburt Field

Mary Esther, Florida, Estats Units d'Amèrica

latitud: 30-25N, longitud: 086-41W, altitud: 12 m

Observació

L'informe es va fer fa 16 minuts, a les 22:56 UTC
Vent 4 kt del Sud-Est
Temperatura 18°C
Humitat 88%
Pressió 1017 hPa
Visibilitat: 16.1 km
Escasses núvols a una alçada de 1200 ft
pluja

METAR: KHRT 172256Z AUTO 13004KT 10SM -RA FEW012 18/16 A3004 RMK AO2 DZE2156DZB2157E04RAB05E07RAB09E37RAB40E52RAB54 SLP174 P0000 T01800156 $

Hora: 17:12 (23:12 UTC)


TAF: manca

Observacions i pronòstics meteorològics de més de 4000 aeroports (METAR i TAF).

Les estacions disponibles són els punts grocs i vermells al mapa.

Posi el ratolí al punt desitjat per veure el nom de l'estació.

Feu clic per veure les observacions i els pronòstics meteorològics.

Per canviar el mapa: feu clic els botons verds amb una creu de color negre per apropar; al botó verd amb un guió per allunyar la imatge; o en les fletxes verdes per a mapes adjacents.


METAR-TAF: